sensor_id;sensor_type;location;lat;lon;timestamp;P1;durP1;ratioP1;P2;durP2;ratioP2
3121;SDS011;1571;52.524;14.104;2022-09-01T00:00:01;1.37;;;0.60;;
3121;SDS011;1571;52.524;14.104;2022-09-01T00:02:33;0.87;;;0.70;;
3121;SDS011;1571;52.524;14.104;2022-09-01T00:05:01;0.83;;;0.77;;
3121;SDS011;1571;52.524;14.104;2022-09-01T00:07:33;0.67;;;0.60;;
3121;SDS011;1571;52.524;14.104;2022-09-01T00:10:04;0.80;;;0.70;;
3121;SDS011;1571;52.524;14.104;2022-09-01T00:12:35;3.77;;;0.77;;
3121;SDS011;1571;52.524;14.104;2022-09-01T00:15:08;1.93;;;0.90;;
3121;SDS011;1571;52.524;14.104;2022-09-01T00:17:37;0.70;;;0.70;;
3121;SDS011;1571;52.524;14.104;2022-09-01T00:20:06;0.57;;;0.57;;
3121;SDS011;1571;52.524;14.104;2022-09-01T00:22:35;2.80;;;0.60;;
3121;SDS011;1571;52.524;14.104;2022-09-01T00:25:03;1.20;;;0.60;;
3121;SDS011;1571;52.524;14.104;2022-09-01T00:27:33;1.03;;;0.60;;
3121;SDS011;1571;52.524;14.104;2022-09-01T00:30:03;1.37;;;1.27;;
3121;SDS011;1571;52.524;14.104;2022-09-01T00:32:33;1.60;;;0.70;;
3121;SDS011;1571;52.524;14.104;2022-09-01T00:35:01;0.80;;;0.80;;
3121;SDS011;1571;52.524;14.104;2022-09-01T00:37:30;1.53;;;0.90;;
3121;SDS011;1571;52.524;14.104;2022-09-01T00:39:58;0.50;;;0.50;;
3121;SDS011;1571;52.524;14.104;2022-09-01T00:42:27;1.03;;;0.60;;
3121;SDS011;1571;52.524;14.104;2022-09-01T00:44:55;10.47;;;0.90;;
3121;SDS011;1571;52.524;14.104;2022-09-01T00:47:23;2.03;;;0.70;;
3121;SDS011;1571;52.524;14.104;2022-09-01T00:49:52;2.33;;;0.70;;
3121;SDS011;1571;52.524;14.104;2022-09-01T00:52:27;1.40;;;0.60;;
3121;SDS011;1571;52.524;14.104;2022-09-01T00:54:59;1.20;;;0.80;;
3121;SDS011;1571;52.524;14.104;2022-09-01T00:57:31;0.73;;;0.63;;
3121;SDS011;1571;52.524;14.104;2022-09-01T01:00:01;0.90;;;0.70;;
3121;SDS011;1571;52.524;14.104;2022-09-01T01:02:34;0.67;;;0.67;;
3121;SDS011;1571;52.524;14.104;2022-09-01T01:05:06;1.80;;;0.73;;
3121;SDS011;1571;52.524;14.104;2022-09-01T01:07:40;1.60;;;0.70;;
3121;SDS011;1571;52.524;14.104;2022-09-01T01:10:13;1.83;;;0.70;;
3121;SDS011;1571;52.524;14.104;2022-09-01T01:12:44;0.73;;;0.60;;
3121;SDS011;1571;52.524;14.104;2022-09-01T01:15:16;1.50;;;0.70;;
3121;SDS011;1571;52.524;14.104;2022-09-01T01:17:45;0.70;;;0.60;;
3121;SDS011;1571;52.524;14.104;2022-09-01T01:20:14;0.90;;;0.80;;
3121;SDS011;1571;52.524;14.104;2022-09-01T01:23:06;2.20;;;0.70;;
3121;SDS011;1571;52.524;14.104;2022-09-01T01:25:45;1.63;;;1.00;;
3121;SDS011;1571;52.524;14.104;2022-09-01T01:28:18;1.07;;;0.70;;
3121;SDS011;1571;52.524;14.104;2022-09-01T01:30:51;4.13;;;0.60;;
3121;SDS011;1571;52.524;14.104;2022-09-01T01:33:23;0.80;;;0.70;;
3121;SDS011;1571;52.524;14.104;2022-09-01T01:35:55;0.70;;;0.70;;
3121;SDS011;1571;52.524;14.104;2022-09-01T01:38:26;2.03;;;0.80;;
3121;SDS011;1571;52.524;14.104;2022-09-01T01:40:58;0.77;;;0.77;;
3121;SDS011;1571;52.524;14.104;2022-09-01T01:43:27;1.07;;;0.97;;
3121;SDS011;1571;52.524;14.104;2022-09-01T01:45:56;1.77;;;0.70;;
3121;SDS011;1571;52.524;14.104;2022-09-01T01:48:32;1.27;;;0.77;;
3121;SDS011;1571;52.524;14.104;2022-09-01T01:51:03;0.77;;;0.60;;
3121;SDS011;1571;52.524;14.104;2022-09-01T01:53:32;0.80;;;0.80;;
3121;SDS011;1571;52.524;14.104;2022-09-01T01:56:02;2.30;;;0.80;;
3121;SDS011;1571;52.524;14.104;2022-09-01T01:58:34;2.13;;;1.33;;
3121;SDS011;1571;52.524;14.104;2022-09-01T02:01:08;0.70;;;0.70;;
3121;SDS011;1571;52.524;14.104;2022-09-01T02:03:37;0.70;;;0.70;;
3121;SDS011;1571;52.524;14.104;2022-09-01T02:06:07;2.00;;;1.00;;
3121;SDS011;1571;52.524;14.104;2022-09-01T02:08:39;0.60;;;0.60;;
3121;SDS011;1571;52.524;14.104;2022-09-01T02:11:09;1.23;;;0.73;;
3121;SDS011;1571;52.524;14.104;2022-09-01T02:13:39;2.03;;;1.23;;
3121;SDS011;1571;52.524;14.104;2022-09-01T02:16:07;1.77;;;1.00;;
3121;SDS011;1571;52.524;14.104;2022-09-01T02:18:40;1.00;;;0.80;;
3121;SDS011;1571;52.524;14.104;2022-09-01T02:21:14;0.67;;;0.63;;
3121;SDS011;1571;52.524;14.104;2022-09-01T02:23:46;1.43;;;0.70;;
3121;SDS011;1571;52.524;14.104;2022-09-01T02:26:17;1.13;;;0.87;;
3121;SDS011;1571;52.524;14.104;2022-09-01T02:28:49;3.63;;;0.93;;
3121;SDS011;1571;52.524;14.104;2022-09-01T02:31:25;0.70;;;0.70;;
3121;SDS011;1571;52.524;14.104;2022-09-01T02:33:56;7.90;;;0.80;;
3121;SDS011;1571;52.524;14.104;2022-09-01T02:36:25;1.93;;;0.80;;
3121;SDS011;1571;52.524;14.104;2022-09-01T02:38:54;0.90;;;0.80;;
3121;SDS011;1571;52.524;14.104;2022-09-01T02:41:25;1.57;;;0.70;;
3121;SDS011;1571;52.524;14.104;2022-09-01T02:43:58;3.27;;;0.80;;
3121;SDS011;1571;52.524;14.104;2022-09-01T02:46:28;0.90;;;0.83;;
3121;SDS011;1571;52.524;14.104;2022-09-01T02:48:58;2.37;;;0.80;;
3121;SDS011;1571;52.524;14.104;2022-09-01T02:51:28;1.03;;;0.83;;
3121;SDS011;1571;52.524;14.104;2022-09-01T02:53:58;1.27;;;0.80;;
3121;SDS011;1571;52.524;14.104;2022-09-01T02:56:28;0.80;;;0.80;;
3121;SDS011;1571;52.524;14.104;2022-09-01T02:58:56;0.93;;;0.73;;
3121;SDS011;1571;52.524;14.104;2022-09-01T03:01:28;0.60;;;0.60;;
3121;SDS011;1571;52.524;14.104;2022-09-01T03:04:00;1.23;;;0.80;;
3121;SDS011;1571;52.524;14.104;2022-09-01T03:06:31;1.73;;;0.70;;
3121;SDS011;1571;52.524;14.104;2022-09-01T03:09:03;2.07;;;1.00;;
3121;SDS011;1571;52.524;14.104;2022-09-01T03:11:35;2.40;;;1.00;;
3121;SDS011;1571;52.524;14.104;2022-09-01T03:14:05;4.37;;;1.00;;
3121;SDS011;1571;52.524;14.104;2022-09-01T03:16:35;0.93;;;0.83;;
3121;SDS011;1571;52.524;14.104;2022-09-01T03:19:06;1.17;;;0.90;;
3121;SDS011;1571;52.524;14.104;2022-09-01T03:21:34;1.37;;;0.90;;
3121;SDS011;1571;52.524;14.104;2022-09-01T03:24:06;2.47;;;0.80;;
3121;SDS011;1571;52.524;14.104;2022-09-01T03:26:37;0.80;;;0.80;;
3121;SDS011;1571;52.524;14.104;2022-09-01T03:29:06;3.10;;;1.00;;
3121;SDS011;1571;52.524;14.104;2022-09-01T03:31:35;0.80;;;0.80;;
3121;SDS011;1571;52.524;14.104;2022-09-01T03:34:05;0.90;;;0.80;;
3121;SDS011;1571;52.524;14.104;2022-09-01T03:36:41;2.23;;;0.90;;
3121;SDS011;1571;52.524;14.104;2022-09-01T03:39:22;2.00;;;0.60;;
3121;SDS011;1571;52.524;14.104;2022-09-01T03:41:52;1.00;;;0.90;;
3121;SDS011;1571;52.524;14.104;2022-09-01T03:44:21;1.33;;;0.83;;
3121;SDS011;1571;52.524;14.104;2022-09-01T03:46:49;2.40;;;0.90;;
3121;SDS011;1571;52.524;14.104;2022-09-01T03:49:19;1.30;;;1.13;;
3121;SDS011;1571;52.524;14.104;2022-09-01T03:51:51;1.67;;;0.90;;
3121;SDS011;1571;52.524;14.104;2022-09-01T03:54:19;1.40;;;0.90;;
3121;SDS011;1571;52.524;14.104;2022-09-01T03:56:51;1.83;;;1.70;;
3121;SDS011;1571;52.524;14.104;2022-09-01T03:59:22;2.50;;;1.00;;
3121;SDS011;1571;52.524;14.104;2022-09-01T04:01:51;1.13;;;1.00;;
3121;SDS011;1571;52.524;14.104;2022-09-01T04:04:20;1.33;;;1.00;;
3121;SDS011;1571;52.524;14.104;2022-09-01T04:06:48;1.40;;;1.20;;
3121;SDS011;1571;52.524;14.104;2022-09-01T04:09:16;1.20;;;1.10;;
3121;SDS011;1571;52.524;14.104;2022-09-01T04:11:45;1.00;;;0.90;;
3121;SDS011;1571;52.524;14.104;2022-09-01T04:14:16;1.10;;;1.00;;
3121;SDS011;1571;52.524;14.104;2022-09-01T04:16:47;1.37;;;1.27;;
3121;SDS011;1571;52.524;14.104;2022-09-01T04:19:35;1.40;;;1.30;;
3121;SDS011;1571;52.524;14.104;2022-09-01T04:22:07;1.40;;;1.30;;
3121;SDS011;1571;52.524;14.104;2022-09-01T04:24:40;2.60;;;1.67;;
3121;SDS011;1571;52.524;14.104;2022-09-01T04:27:12;1.50;;;1.40;;
3121;SDS011;1571;52.524;14.104;2022-09-01T04:29:45;6.07;;;1.10;;
3121;SDS011;1571;52.524;14.104;2022-09-01T04:32:14;1.33;;;1.03;;
3121;SDS011;1571;52.524;14.104;2022-09-01T04:34:46;2.17;;;1.40;;
3121;SDS011;1571;52.524;14.104;2022-09-01T04:37:16;1.23;;;1.10;;
3121;SDS011;1571;52.524;14.104;2022-09-01T04:39:52;2.50;;;0.93;;
3121;SDS011;1571;52.524;14.104;2022-09-01T04:42:24;2.43;;;1.03;;
3121;SDS011;1571;52.524;14.104;2022-09-01T04:44:58;3.83;;;1.20;;
3121;SDS011;1571;52.524;14.104;2022-09-01T04:47:34;3.73;;;1.07;;
3121;SDS011;1571;52.524;14.104;2022-09-01T04:50:08;1.57;;;1.00;;
3121;SDS011;1571;52.524;14.104;2022-09-01T04:52:46;1.03;;;1.00;;
3121;SDS011;1571;52.524;14.104;2022-09-01T04:55:25;1.30;;;1.20;;
3121;SDS011;1571;52.524;14.104;2022-09-01T04:57:56;0.90;;;0.90;;
3121;SDS011;1571;52.524;14.104;2022-09-01T05:00:26;6.43;;;1.57;;
3121;SDS011;1571;52.524;14.104;2022-09-01T05:02:59;1.47;;;0.90;;
3121;SDS011;1571;52.524;14.104;2022-09-01T05:05:49;2.73;;;1.07;;
3121;SDS011;1571;52.524;14.104;2022-09-01T05:08:21;1.10;;;1.00;;
3121;SDS011;1571;52.524;14.104;2022-09-01T05:10:54;1.87;;;0.80;;
3121;SDS011;1571;52.524;14.104;2022-09-01T05:13:32;1.83;;;1.10;;
3121;SDS011;1571;52.524;14.104;2022-09-01T05:16:03;0.90;;;0.90;;
3121;SDS011;1571;52.524;14.104;2022-09-01T05:18:42;1.80;;;1.00;;
3121;SDS011;1571;52.524;14.104;2022-09-01T05:21:17;2.20;;;1.23;;
3121;SDS011;1571;52.524;14.104;2022-09-01T05:23:48;1.20;;;1.10;;
3121;SDS011;1571;52.524;14.104;2022-09-01T05:26:20;1.43;;;1.33;;
3121;SDS011;1571;52.524;14.104;2022-09-01T05:28:51;1.00;;;1.00;;
3121;SDS011;1571;52.524;14.104;2022-09-01T05:31:24;2.83;;;1.30;;
3121;SDS011;1571;52.524;14.104;2022-09-01T05:33:55;3.87;;;1.00;;
3121;SDS011;1571;52.524;14.104;2022-09-01T05:36:24;2.03;;;1.13;;
3121;SDS011;1571;52.524;14.104;2022-09-01T05:38:54;2.00;;;1.50;;
3121;SDS011;1571;52.524;14.104;2022-09-01T05:41:23;2.10;;;1.20;;
3121;SDS011;1571;52.524;14.104;2022-09-01T05:43:52;1.40;;;1.30;;
3121;SDS011;1571;52.524;14.104;2022-09-01T05:46:28;7.23;;;1.53;;
3121;SDS011;1571;52.524;14.104;2022-09-01T05:48:57;4.47;;;1.33;;
3121;SDS011;1571;52.524;14.104;2022-09-01T05:51:26;3.20;;;1.80;;
3121;SDS011;1571;52.524;14.104;2022-09-01T05:54:11;4.50;;;1.00;;
3121;SDS011;1571;52.524;14.104;2022-09-01T05:56:42;1.60;;;1.50;;
3121;SDS011;1571;52.524;14.104;2022-09-01T05:59:21;1.50;;;1.40;;
3121;SDS011;1571;52.524;14.104;2022-09-01T06:01:56;1.70;;;1.40;;
3121;SDS011;1571;52.524;14.104;2022-09-01T06:04:26;1.20;;;1.10;;
3121;SDS011;1571;52.524;14.104;2022-09-01T06:07:01;1.67;;;1.30;;
3121;SDS011;1571;52.524;14.104;2022-09-01T06:09:41;2.30;;;1.00;;
3121;SDS011;1571;52.524;14.104;2022-09-01T06:12:11;1.10;;;1.10;;
3121;SDS011;1571;52.524;14.104;2022-09-01T06:14:45;2.50;;;1.20;;
3121;SDS011;1571;52.524;14.104;2022-09-01T06:17:17;1.40;;;1.30;;
3121;SDS011;1571;52.524;14.104;2022-09-01T06:19:52;3.03;;;1.30;;
3121;SDS011;1571;52.524;14.104;2022-09-01T06:22:22;1.50;;;1.03;;
3121;SDS011;1571;52.524;14.104;2022-09-01T06:24:52;3.40;;;1.10;;
3121;SDS011;1571;52.524;14.104;2022-09-01T06:27:30;3.43;;;1.00;;
3121;SDS011;1571;52.524;14.104;2022-09-01T06:29:59;0.80;;;0.80;;
3121;SDS011;1571;52.524;14.104;2022-09-01T06:32:35;1.20;;;1.00;;
3121;SDS011;1571;52.524;14.104;2022-09-01T06:35:04;1.40;;;1.30;;
3121;SDS011;1571;52.524;14.104;2022-09-01T06:37:35;1.10;;;1.00;;
3121;SDS011;1571;52.524;14.104;2022-09-01T06:40:06;1.67;;;1.20;;
3121;SDS011;1571;52.524;14.104;2022-09-01T06:42:43;2.20;;;1.07;;
3121;SDS011;1571;52.524;14.104;2022-09-01T06:45:14;1.07;;;1.00;;
3121;SDS011;1571;52.524;14.104;2022-09-01T06:47:46;1.30;;;1.20;;
3121;SDS011;1571;52.524;14.104;2022-09-01T06:50:23;3.53;;;1.20;;
3121;SDS011;1571;52.524;14.104;2022-09-01T06:53:16;2.10;;;0.97;;
3121;SDS011;1571;52.524;14.104;2022-09-01T06:56:06;1.63;;;1.20;;
3121;SDS011;1571;52.524;14.104;2022-09-01T06:58:36;2.20;;;1.10;;
3121;SDS011;1571;52.524;14.104;2022-09-01T07:01:07;1.73;;;1.10;;
3121;SDS011;1571;52.524;14.104;2022-09-01T07:03:43;5.03;;;1.10;;
3121;SDS011;1571;52.524;14.104;2022-09-01T07:06:21;1.93;;;0.87;;
3121;SDS011;1571;52.524;14.104;2022-09-01T07:09:27;1.30;;;1.20;;
3121;SDS011;1571;52.524;14.104;2022-09-01T07:12:33;1.20;;;1.10;;
3121;SDS011;1571;52.524;14.104;2022-09-01T07:15:01;1.63;;;0.90;;
3121;SDS011;1571;52.524;14.104;2022-09-01T07:17:51;2.07;;;1.00;;
3121;SDS011;1571;52.524;14.104;2022-09-01T07:20:25;1.17;;;1.17;;
3121;SDS011;1571;52.524;14.104;2022-09-01T07:22:58;2.83;;;1.27;;
3121;SDS011;1571;52.524;14.104;2022-09-01T07:25:31;1.60;;;0.90;;
3121;SDS011;1571;52.524;14.104;2022-09-01T07:28:32;3.03;;;1.17;;
3121;SDS011;1571;52.524;14.104;2022-09-01T07:31:03;4.90;;;1.30;;
3121;SDS011;1571;52.524;14.104;2022-09-01T07:33:55;2.73;;;0.83;;
3121;SDS011;1571;52.524;14.104;2022-09-01T07:36:48;1.03;;;0.80;;
3121;SDS011;1571;52.524;14.104;2022-09-01T07:39:38;1.80;;;0.90;;
3121;SDS011;1571;52.524;14.104;2022-09-01T07:42:52;1.70;;;0.83;;
3121;SDS011;1571;52.524;14.104;2022-09-01T07:45:52;1.87;;;1.00;;
3121;SDS011;1571;52.524;14.104;2022-09-01T07:48:26;1.60;;;0.90;;
3121;SDS011;1571;52.524;14.104;2022-09-01T07:51:17;0.90;;;0.90;;
3121;SDS011;1571;52.524;14.104;2022-09-01T07:54:05;1.47;;;0.73;;
3121;SDS011;1571;52.524;14.104;2022-09-01T07:56:34;0.90;;;0.80;;
3121;SDS011;1571;52.524;14.104;2022-09-01T07:59:08;4.70;;;0.90;;
3121;SDS011;1571;52.524;14.104;2022-09-01T08:01:49;3.90;;;0.90;;
3121;SDS011;1571;52.524;14.104;2022-09-01T08:04:19;1.40;;;0.90;;
3121;SDS011;1571;52.524;14.104;2022-09-01T08:06:49;2.10;;;0.70;;
3121;SDS011;1571;52.524;14.104;2022-09-01T08:09:19;1.10;;;1.10;;
3121;SDS011;1571;52.524;14.104;2022-09-01T08:12:05;1.77;;;0.90;;
3121;SDS011;1571;52.524;14.104;2022-09-01T08:14:52;2.20;;;0.87;;
3121;SDS011;1571;52.524;14.104;2022-09-01T08:17:40;1.40;;;0.80;;
3121;SDS011;1571;52.524;14.104;2022-09-01T08:20:27;2.10;;;1.00;;
3121;SDS011;1571;52.524;14.104;2022-09-01T08:23:08;1.77;;;0.90;;
3121;SDS011;1571;52.524;14.104;2022-09-01T08:25:39;1.60;;;0.70;;
3121;SDS011;1571;52.524;14.104;2022-09-01T08:28:08;3.50;;;0.90;;
3121;SDS011;1571;52.524;14.104;2022-09-01T08:30:38;1.40;;;0.53;;
3121;SDS011;1571;52.524;14.104;2022-09-01T08:33:18;1.50;;;0.70;;
3121;SDS011;1571;52.524;14.104;2022-09-01T08:35:47;1.57;;;0.70;;
3121;SDS011;1571;52.524;14.104;2022-09-01T08:38:17;1.03;;;0.80;;
3121;SDS011;1571;52.524;14.104;2022-09-01T08:40:51;1.13;;;0.83;;
3121;SDS011;1571;52.524;14.104;2022-09-01T08:43:32;1.00;;;0.80;;
3121;SDS011;1571;52.524;14.104;2022-09-01T08:46:11;4.57;;;1.00;;
3121;SDS011;1571;52.524;14.104;2022-09-01T08:48:45;1.43;;;0.70;;
3121;SDS011;1571;52.524;14.104;2022-09-01T08:51:57;3.17;;;0.77;;
3121;SDS011;1571;52.524;14.104;2022-09-01T08:54:31;0.70;;;0.60;;
3121;SDS011;1571;52.524;14.104;2022-09-01T08:57:07;0.97;;;0.70;;
3121;SDS011;1571;52.524;14.104;2022-09-01T09:00:02;1.13;;;0.73;;
3121;SDS011;1571;52.524;14.104;2022-09-01T09:02:44;1.60;;;0.67;;
3121;SDS011;1571;52.524;14.104;2022-09-01T09:05:25;6.17;;;0.80;;
3121;SDS011;1571;52.524;14.104;2022-09-01T09:08:03;1.47;;;0.63;;
3121;SDS011;1571;52.524;14.104;2022-09-01T09:10:46;0.60;;;0.60;;
3121;SDS011;1571;52.524;14.104;2022-09-01T09:13:22;0.80;;;0.70;;
3121;SDS011;1571;52.524;14.104;2022-09-01T09:15:58;1.90;;;0.63;;
3121;SDS011;1571;52.524;14.104;2022-09-01T09:18:36;0.70;;;0.60;;
3121;SDS011;1571;52.524;14.104;2022-09-01T09:21:22;4.53;;;1.10;;
3121;SDS011;1571;52.524;14.104;2022-09-01T09:23:57;1.90;;;0.60;;
3121;SDS011;1571;52.524;14.104;2022-09-01T09:26:32;1.53;;;0.50;;
3121;SDS011;1571;52.524;14.104;2022-09-01T09:29:10;1.80;;;0.60;;
3121;SDS011;1571;52.524;14.104;2022-09-01T09:31:39;0.50;;;0.50;;
3121;SDS011;1571;52.524;14.104;2022-09-01T09:34:28;1.90;;;0.50;;
3121;SDS011;1571;52.524;14.104;2022-09-01T09:40:04;0.70;;;0.50;;
3121;SDS011;1571;52.524;14.104;2022-09-01T09:42:38;0.60;;;0.50;;
3121;SDS011;1571;52.524;14.104;2022-09-01T09:45:21;0.50;;;0.50;;
3121;SDS011;1571;52.524;14.104;2022-09-01T09:47:51;5.77;;;0.60;;
3121;SDS011;1571;52.524;14.104;2022-09-01T09:50:22;1.20;;;0.63;;
3121;SDS011;1571;52.524;14.104;2022-09-01T09:53:08;1.20;;;0.60;;
3121;SDS011;1571;52.524;14.104;2022-09-01T09:55:49;1.33;;;0.63;;
3121;SDS011;1571;52.524;14.104;2022-09-01T09:58:34;0.50;;;0.50;;
3121;SDS011;1571;52.524;14.104;2022-09-01T10:01:06;0.60;;;0.50;;
3121;SDS011;1571;52.524;14.104;2022-09-01T10:03:41;1.90;;;0.60;;
3121;SDS011;1571;52.524;14.104;2022-09-01T10:06:12;1.33;;;0.40;;
3121;SDS011;1571;52.524;14.104;2022-09-01T10:08:57;1.27;;;0.43;;
3121;SDS011;1571;52.524;14.104;2022-09-01T10:11:28;1.27;;;0.50;;
3121;SDS011;1571;52.524;14.104;2022-09-01T10:14:03;0.57;;;0.40;;
3121;SDS011;1571;52.524;14.104;2022-09-01T10:16:36;1.97;;;0.40;;
3121;SDS011;1571;52.524;14.104;2022-09-01T10:19:10;1.97;;;0.50;;
3121;SDS011;1571;52.524;14.104;2022-09-01T10:21:43;0.60;;;0.40;;
3121;SDS011;1571;52.524;14.104;2022-09-01T10:24:15;0.57;;;0.50;;
3121;SDS011;1571;52.524;14.104;2022-09-01T10:26:53;2.30;;;0.70;;
3121;SDS011;1571;52.524;14.104;2022-09-01T10:29:24;0.60;;;0.60;;
3121;SDS011;1571;52.524;14.104;2022-09-01T10:32:04;0.90;;;0.50;;
3121;SDS011;1571;52.524;14.104;2022-09-01T10:34:57;2.73;;;0.67;;
3121;SDS011;1571;52.524;14.104;2022-09-01T10:37:28;0.50;;;0.40;;
3121;SDS011;1571;52.524;14.104;2022-09-01T10:42:47;1.03;;;0.40;;
3121;SDS011;1571;52.524;14.104;2022-09-01T10:45:28;2.07;;;1.33;;
3121;SDS011;1571;52.524;14.104;2022-09-01T10:57:29;1.60;;;0.97;;
3121;SDS011;1571;52.524;14.104;2022-09-01T11:09:39;5.90;;;0.60;;
3121;SDS011;1571;52.524;14.104;2022-09-01T11:12:12;0.50;;;0.40;;
3121;SDS011;1571;52.524;14.104;2022-09-01T11:14:56;0.97;;;0.50;;
3121;SDS011;1571;52.524;14.104;2022-09-01T11:17:26;0.60;;;0.50;;
3121;SDS011;1571;52.524;14.104;2022-09-01T11:20:01;0.97;;;0.50;;
3121;SDS011;1571;52.524;14.104;2022-09-01T11:22:38;1.80;;;0.40;;
3121;SDS011;1571;52.524;14.104;2022-09-01T11:31:22;0.40;;;0.40;;
3121;SDS011;1571;52.524;14.104;2022-09-01T11:36:51;0.47;;;0.40;;
3121;SDS011;1571;52.524;14.104;2022-09-01T11:39:31;0.53;;;0.50;;
3121;SDS011;1571;52.524;14.104;2022-09-01T11:42:08;3.13;;;0.50;;
3121;SDS011;1571;52.524;14.104;2022-09-01T11:44:41;2.53;;;0.50;;
3121;SDS011;1571;52.524;14.104;2022-09-01T11:47:16;0.70;;;0.40;;
3121;SDS011;1571;52.524;14.104;2022-09-01T11:49:48;0.77;;;0.40;;
3121;SDS011;1571;52.524;14.104;2022-09-01T11:52:21;0.80;;;0.50;;
3121;SDS011;1571;52.524;14.104;2022-09-01T11:54:52;0.50;;;0.50;;
3121;SDS011;1571;52.524;14.104;2022-09-01T11:57:22;2.93;;;0.40;;
3121;SDS011;1571;52.524;14.104;2022-09-01T11:59:54;0.60;;;0.53;;
3121;SDS011;1571;52.524;14.104;2022-09-01T12:02:24;0.80;;;0.40;;
3121;SDS011;1571;52.524;14.104;2022-09-01T12:04:55;0.37;;;0.33;;
3121;SDS011;1571;52.524;14.104;2022-09-01T12:07:29;1.33;;;0.40;;
3121;SDS011;1571;52.524;14.104;2022-09-01T12:10:12;1.70;;;0.47;;
3121;SDS011;1571;52.524;14.104;2022-09-01T12:12:44;0.40;;;0.37;;
3121;SDS011;1571;52.524;14.104;2022-09-01T12:15:18;0.43;;;0.40;;
3121;SDS011;1571;52.524;14.104;2022-09-01T12:17:48;1.30;;;0.40;;
3121;SDS011;1571;52.524;14.104;2022-09-01T12:20:24;0.80;;;0.40;;
3121;SDS011;1571;52.524;14.104;2022-09-01T12:22:58;2.40;;;0.40;;
3121;SDS011;1571;52.524;14.104;2022-09-01T12:25:29;0.50;;;0.40;;
3121;SDS011;1571;52.524;14.104;2022-09-01T12:27:59;0.50;;;0.40;;
3121;SDS011;1571;52.524;14.104;2022-09-01T12:30:28;1.23;;;0.50;;
3121;SDS011;1571;52.524;14.104;2022-09-01T12:33:01;0.90;;;0.83;;
3121;SDS011;1571;52.524;14.104;2022-09-01T12:35:49;0.50;;;0.40;;
3121;SDS011;1571;52.524;14.104;2022-09-01T12:38:27;0.47;;;0.40;;
3121;SDS011;1571;52.524;14.104;2022-09-01T12:40:57;1.23;;;0.30;;
3121;SDS011;1571;52.524;14.104;2022-09-01T12:43:26;0.93;;;0.60;;
3121;SDS011;1571;52.524;14.104;2022-09-01T12:45:56;0.80;;;0.40;;
3121;SDS011;1571;52.524;14.104;2022-09-01T12:48:27;0.50;;;0.30;;
3121;SDS011;1571;52.524;14.104;2022-09-01T12:50:59;1.23;;;0.40;;
3121;SDS011;1571;52.524;14.104;2022-09-01T12:53:31;2.40;;;0.40;;
3121;SDS011;1571;52.524;14.104;2022-09-01T12:58:49;0.67;;;0.40;;
3121;SDS011;1571;52.524;14.104;2022-09-01T13:01:28;0.60;;;0.40;;
3121;SDS011;1571;52.524;14.104;2022-09-01T13:04:12;1.13;;;0.40;;
3121;SDS011;1571;52.524;14.104;2022-09-01T13:07:05;1.33;;;0.40;;
3121;SDS011;1571;52.524;14.104;2022-09-01T13:09:36;0.50;;;0.40;;
3121;SDS011;1571;52.524;14.104;2022-09-01T13:12:08;0.50;;;0.40;;
3121;SDS011;1571;52.524;14.104;2022-09-01T13:14:38;3.17;;;0.47;;
3121;SDS011;1571;52.524;14.104;2022-09-01T13:17:07;0.70;;;0.43;;
3121;SDS011;1571;52.524;14.104;2022-09-01T13:19:40;1.17;;;0.40;;
3121;SDS011;1571;52.524;14.104;2022-09-01T13:22:09;1.80;;;0.40;;
3121;SDS011;1571;52.524;14.104;2022-09-01T13:24:39;1.00;;;0.40;;
3121;SDS011;1571;52.524;14.104;2022-09-01T13:27:07;3.90;;;0.60;;
3121;SDS011;1571;52.524;14.104;2022-09-01T13:29:52;0.47;;;0.43;;
3121;SDS011;1571;52.524;14.104;2022-09-01T13:32:21;0.90;;;0.40;;
3121;SDS011;1571;52.524;14.104;2022-09-01T13:34:51;0.90;;;0.43;;
3121;SDS011;1571;52.524;14.104;2022-09-01T13:37:21;0.50;;;0.40;;
3121;SDS011;1571;52.524;14.104;2022-09-01T13:39:51;1.10;;;0.50;;
3121;SDS011;1571;52.524;14.104;2022-09-01T13:42:20;1.00;;;0.40;;
3121;SDS011;1571;52.524;14.104;2022-09-01T13:44:54;1.10;;;0.40;;
3121;SDS011;1571;52.524;14.104;2022-09-01T13:47:22;0.50;;;0.40;;
3121;SDS011;1571;52.524;14.104;2022-09-01T13:49:56;0.60;;;0.53;;
3121;SDS011;1571;52.524;14.104;2022-09-01T13:52:36;1.87;;;1.00;;
3121;SDS011;1571;52.524;14.104;2022-09-01T13:55:07;2.60;;;0.80;;
3121;SDS011;1571;52.524;14.104;2022-09-01T13:57:38;0.60;;;0.50;;
3121;SDS011;1571;52.524;14.104;2022-09-01T14:00:08;0.50;;;0.50;;
3121;SDS011;1571;52.524;14.104;2022-09-01T14:02:40;0.53;;;0.50;;
3121;SDS011;1571;52.524;14.104;2022-09-01T14:05:15;1.23;;;1.00;;
3121;SDS011;1571;52.524;14.104;2022-09-01T14:07:44;1.53;;;0.53;;
3121;SDS011;1571;52.524;14.104;2022-09-01T14:10:14;0.70;;;0.53;;
3121;SDS011;1571;52.524;14.104;2022-09-01T14:12:43;3.50;;;0.40;;
3121;SDS011;1571;52.524;14.104;2022-09-01T14:15:13;1.17;;;0.70;;
3121;SDS011;1571;52.524;14.104;2022-09-01T14:17:48;1.13;;;0.50;;
3121;SDS011;1571;52.524;14.104;2022-09-01T14:20:19;2.10;;;0.50;;
3121;SDS011;1571;52.524;14.104;2022-09-01T14:22:49;4.30;;;0.50;;
3121;SDS011;1571;52.524;14.104;2022-09-01T14:25:19;2.33;;;0.70;;
3121;SDS011;1571;52.524;14.104;2022-09-01T14:27:49;2.30;;;0.50;;
3121;SDS011;1571;52.524;14.104;2022-09-01T14:30:20;0.60;;;0.60;;
3121;SDS011;1571;52.524;14.104;2022-09-01T14:32:57;1.57;;;0.50;;
3121;SDS011;1571;52.524;14.104;2022-09-01T14:35:26;1.33;;;0.50;;
3121;SDS011;1571;52.524;14.104;2022-09-01T14:37:55;0.60;;;0.50;;
3121;SDS011;1571;52.524;14.104;2022-09-01T14:40:25;0.87;;;0.70;;
3121;SDS011;1571;52.524;14.104;2022-09-01T14:42:55;1.10;;;0.50;;
3121;SDS011;1571;52.524;14.104;2022-09-01T14:45:24;1.00;;;0.60;;
3121;SDS011;1571;52.524;14.104;2022-09-01T14:47:55;1.37;;;0.50;;
3121;SDS011;1571;52.524;14.104;2022-09-01T14:50:27;0.70;;;0.60;;
3121;SDS011;1571;52.524;14.104;2022-09-01T14:52:58;4.93;;;0.70;;
3121;SDS011;1571;52.524;14.104;2022-09-01T14:55:30;3.13;;;0.63;;
3121;SDS011;1571;52.524;14.104;2022-09-01T14:57:58;0.60;;;0.60;;
3121;SDS011;1571;52.524;14.104;2022-09-01T15:00:27;0.87;;;0.60;;
3121;SDS011;1571;52.524;14.104;2022-09-01T15:02:57;3.13;;;0.60;;
3121;SDS011;1571;52.524;14.104;2022-09-01T15:05:25;2.30;;;0.60;;
3121;SDS011;1571;52.524;14.104;2022-09-01T15:07:54;1.47;;;0.50;;
3121;SDS011;1571;52.524;14.104;2022-09-01T15:10:23;0.83;;;0.60;;
3121;SDS011;1571;52.524;14.104;2022-09-01T15:12:55;1.17;;;0.60;;
3121;SDS011;1571;52.524;14.104;2022-09-01T15:15:25;1.53;;;0.60;;
3121;SDS011;1571;52.524;14.104;2022-09-01T15:17:55;1.27;;;0.50;;
3121;SDS011;1571;52.524;14.104;2022-09-01T15:20:24;0.60;;;0.60;;
3121;SDS011;1571;52.524;14.104;2022-09-01T15:23:10;0.50;;;0.50;;
3121;SDS011;1571;52.524;14.104;2022-09-01T15:25:41;0.60;;;0.50;;
3121;SDS011;1571;52.524;14.104;2022-09-01T15:28:11;0.60;;;0.50;;
3121;SDS011;1571;52.524;14.104;2022-09-01T15:30:40;1.67;;;0.70;;
3121;SDS011;1571;52.524;14.104;2022-09-01T15:33:12;1.80;;;0.53;;
3121;SDS011;1571;52.524;14.104;2022-09-01T15:35:42;1.70;;;0.50;;
3121;SDS011;1571;52.524;14.104;2022-09-01T15:38:12;0.87;;;0.60;;
3121;SDS011;1571;52.524;14.104;2022-09-01T15:40:44;1.03;;;0.60;;
3121;SDS011;1571;52.524;14.104;2022-09-01T15:43:26;0.67;;;0.57;;
3121;SDS011;1571;52.524;14.104;2022-09-01T15:45:55;1.53;;;0.60;;
3121;SDS011;1571;52.524;14.104;2022-09-01T15:48:25;1.33;;;0.60;;
3121;SDS011;1571;52.524;14.104;2022-09-01T15:50:57;1.17;;;0.57;;
3121;SDS011;1571;52.524;14.104;2022-09-01T15:53:43;0.70;;;0.60;;
3121;SDS011;1571;52.524;14.104;2022-09-01T15:56:11;0.70;;;0.53;;
3121;SDS011;1571;52.524;14.104;2022-09-01T15:58:41;3.57;;;0.60;;
3121;SDS011;1571;52.524;14.104;2022-09-01T16:01:27;0.50;;;0.50;;
3121;SDS011;1571;52.524;14.104;2022-09-01T16:03:57;0.60;;;0.57;;
3121;SDS011;1571;52.524;14.104;2022-09-01T16:06:27;3.20;;;0.70;;
3121;SDS011;1571;52.524;14.104;2022-09-01T16:08:55;1.73;;;0.60;;
3121;SDS011;1571;52.524;14.104;2022-09-01T16:11:24;1.00;;;0.60;;
3121;SDS011;1571;52.524;14.104;2022-09-01T16:13:55;0.60;;;0.60;;
3121;SDS011;1571;52.524;14.104;2022-09-01T16:16:35;0.57;;;0.57;;